Aérodrome :
LOGIN :

S'inscrire | Disclaimer

   EN    FR    IT 

 










Légende :    VFR   VFR Marginal   IFR   IFR Intensif   IFR Très Intensif
Visi : 
Plafond : 
>= 8 km
>= 3000ft
5 à 8 km
1000 à 3000 ft
1500m à 5 km
500 à 1000 ft
800 à 1500m
200 à 500 ft
< 800m
< 200 ft
Symboles :   Orages  Brouillard  Fortes neiges  Fortes précipitations  Vent > 20 kt
SIGMETs :   Divers  Orages  Givrage  Turbulence  Onde Orograph.  Cendres Volcan.






- Altitude de l'aérodrome : 15 ft
- Code IATA : GIB


LXGB - Gibraltar

DERNIER METAR :
  • 061619Z 21010KT CAVOK 27/15 Q1009 NOSIG RMK BLU BLU

METARs EXPIRÉS :
  • 061550Z 21008KT 9999 FEW030 27/15 Q1010 NOSIG
  • 061520Z 20011KT 9999 FEW030 26/16 Q1010 NOSIG
  • 061450Z 20011KT 9999 FEW030 26/16 Q1010 NOSIG
  • 061420Z 21010KT CAVOK 26/16 Q1010 NOSIG
  • 061350Z 21009KT 9999 FEW030 BKN250 26/15 Q1010 NOSIG

TAF TAF LXGB
Valide du 06 à 15h jusqu'au 06 à 23h UTC


061325Z 0615/0623 27010KT 9999 FEW030
PROB30
TEMPO 0615/0619 21015G25KT 520001
PROB30
TEMPO 0619/0623 SCT016



MET'MAP, la Météo Aéronautique d'un coup d'oeil ! - Copyright ORBIFLY Décembre 2007 - Disclaimer

ORBIFLY MET'MAP TEAM :

Programmation & Développement : Alexandra Zaïnal
Sur une idée originale de : Baudouin d'Aumeries
Assistance à la programmation : Marc-Olivier Méhu
Soutien technique & logistique : Manuel Goepfert

Contact : metmap@orbifly.com




SOURCES & CREDITS :

   NOAA